sensor_id;sensor_type;location;lat;lon;timestamp;temperature;humidity
72772;SHT30;60894;42.544;1.516;2023-03-01T00:01:33;0.49;59.64
72772;SHT30;60894;42.544;1.516;2023-03-01T00:04:00;0.50;59.38
72772;SHT30;60894;42.544;1.516;2023-03-01T00:06:27;0.45;60.48
72772;SHT30;60894;42.544;1.516;2023-03-01T00:08:54;0.49;60.43
72772;SHT30;60894;42.544;1.516;2023-03-01T00:11:23;0.40;60.45
72772;SHT30;60894;42.544;1.516;2023-03-01T00:13:53;0.36;60.59
72772;SHT30;60894;42.544;1.516;2023-03-01T00:16:24;0.36;61.33
72772;SHT30;60894;42.544;1.516;2023-03-01T00:18:51;0.19;61.18
72772;SHT30;60894;42.544;1.516;2023-03-01T00:21:20;0.16;61.41
72772;SHT30;60894;42.544;1.516;2023-03-01T00:23:48;0.17;61.27
72772;SHT30;60894;42.544;1.516;2023-03-01T00:26:16;0.03;61.13
72772;SHT30;60894;42.544;1.516;2023-03-01T00:28:43;0.09;61.27
72772;SHT30;60894;42.544;1.516;2023-03-01T00:31:12;0.09;60.60
72772;SHT30;60894;42.544;1.516;2023-03-01T00:33:40;0.06;60.45
72772;SHT30;60894;42.544;1.516;2023-03-01T00:36:08;0.12;60.53
72772;SHT30;60894;42.544;1.516;2023-03-01T00:38:35;0.09;60.49
72772;SHT30;60894;42.544;1.516;2023-03-01T00:41:04;0.05;60.00
72772;SHT30;60894;42.544;1.516;2023-03-01T00:43:32;0.02;60.06
72772;SHT30;60894;42.544;1.516;2023-03-01T00:46:02;-0.01;60.13
72772;SHT30;60894;42.544;1.516;2023-03-01T00:48:29;0.05;60.56
72772;SHT30;60894;42.544;1.516;2023-03-01T00:51:04;-0.06;61.71
72772;SHT30;60894;42.544;1.516;2023-03-01T00:53:31;-0.08;61.06
72772;SHT30;60894;42.544;1.516;2023-03-01T00:55:58;-0.12;60.95
72772;SHT30;60894;42.544;1.516;2023-03-01T00:58:25;-0.09;61.00
72772;SHT30;60894;42.544;1.516;2023-03-01T01:00:52;-0.26;61.38
72772;SHT30;60894;42.544;1.516;2023-03-01T01:03:19;-0.30;61.92
72772;SHT30;60894;42.544;1.516;2023-03-01T01:05:46;-0.16;62.29
72772;SHT30;60894;42.544;1.516;2023-03-01T01:08:14;-0.19;62.51
72772;SHT30;60894;42.544;1.516;2023-03-01T01:10:43;-0.22;62.21
72772;SHT30;60894;42.544;1.516;2023-03-01T01:13:10;-0.28;62.45
72772;SHT30;60894;42.544;1.516;2023-03-01T01:15:37;-0.37;62.80
72772;SHT30;60894;42.544;1.516;2023-03-01T01:18:04;-0.48;63.04
72772;SHT30;60894;42.544;1.516;2023-03-01T01:20:31;-0.50;62.87
72772;SHT30;60894;42.544;1.516;2023-03-01T01:22:59;-0.48;62.75
72772;SHT30;60894;42.544;1.516;2023-03-01T01:25:27;-0.33;62.73
72772;SHT30;60894;42.544;1.516;2023-03-01T01:27:54;-0.37;62.76
72772;SHT30;60894;42.544;1.516;2023-03-01T01:30:21;-0.45;63.54
72772;SHT30;60894;42.544;1.516;2023-03-01T01:32:48;-0.50;63.91
72772;SHT30;60894;42.544;1.516;2023-03-01T01:35:17;-0.42;63.80
72772;SHT30;60894;42.544;1.516;2023-03-01T01:37:45;-0.43;63.18
72772;SHT30;60894;42.544;1.516;2023-03-01T01:40:12;-0.39;62.92
72772;SHT30;60894;42.544;1.516;2023-03-01T01:42:41;-0.50;63.59
72772;SHT30;60894;42.544;1.516;2023-03-01T01:45:30;-0.50;63.74
72772;SHT30;60894;42.544;1.516;2023-03-01T01:48:00;-0.50;63.65
72772;SHT30;60894;42.544;1.516;2023-03-01T01:50:27;-0.53;63.43
72772;SHT30;60894;42.544;1.516;2023-03-01T01:53:09;-0.35;63.11
72772;SHT30;60894;42.544;1.516;2023-03-01T01:55:41;-0.49;63.16
72772;SHT30;60894;42.544;1.516;2023-03-01T01:58:14;-0.50;63.49
72772;SHT30;60894;42.544;1.516;2023-03-01T02:00:42;-0.57;63.76
72772;SHT30;60894;42.544;1.516;2023-03-01T02:03:12;-0.60;64.01
72772;SHT30;60894;42.544;1.516;2023-03-01T02:05:44;-0.64;63.50
72772;SHT30;60894;42.544;1.516;2023-03-01T02:08:13;-0.79;63.98
72772;SHT30;60894;42.544;1.516;2023-03-01T02:10:42;-0.69;64.28
72772;SHT30;60894;42.544;1.516;2023-03-01T02:13:12;-0.60;63.83
72772;SHT30;60894;42.544;1.516;2023-03-01T02:15:40;-0.70;64.02
72772;SHT30;60894;42.544;1.516;2023-03-01T02:18:10;-0.72;64.05
72772;SHT30;60894;42.544;1.516;2023-03-01T02:20:44;-0.69;64.00
72772;SHT30;60894;42.544;1.516;2023-03-01T02:23:14;-0.70;64.19
72772;SHT30;60894;42.544;1.516;2023-03-01T02:25:47;-0.64;64.52
72772;SHT30;60894;42.544;1.516;2023-03-01T02:28:25;-0.59;63.82
72772;SHT30;60894;42.544;1.516;2023-03-01T02:30:53;-0.69;63.95
72772;SHT30;60894;42.544;1.516;2023-03-01T02:33:39;-0.73;63.97
72772;SHT30;60894;42.544;1.516;2023-03-01T02:36:09;-0.77;64.06
72772;SHT30;60894;42.544;1.516;2023-03-01T02:38:39;-1.01;64.65
72772;SHT30;60894;42.544;1.516;2023-03-01T02:41:07;-0.97;64.91
72772;SHT30;60894;42.544;1.516;2023-03-01T02:43:36;-1.01;65.48
72772;SHT30;60894;42.544;1.516;2023-03-01T02:46:05;-0.95;65.39
72772;SHT30;60894;42.544;1.516;2023-03-01T02:48:43;-0.98;65.38
72772;SHT30;60894;42.544;1.516;2023-03-01T02:51:18;-0.94;65.08
72772;SHT30;60894;42.544;1.516;2023-03-01T02:53:56;-1.09;65.28
72772;SHT30;60894;42.544;1.516;2023-03-01T02:56:27;-1.04;65.47
72772;SHT30;60894;42.544;1.516;2023-03-01T02:58:56;-1.08;64.83
72772;SHT30;60894;42.544;1.516;2023-03-01T03:01:26;-1.08;64.93
72772;SHT30;60894;42.544;1.516;2023-03-01T03:04:02;-1.19;65.19
72772;SHT30;60894;42.544;1.516;2023-03-01T03:06:29;-1.14;64.80
72772;SHT30;60894;42.544;1.516;2023-03-01T03:08:56;-1.08;64.88
72772;SHT30;60894;42.544;1.516;2023-03-01T03:11:23;-1.25;65.40
72772;SHT30;60894;42.544;1.516;2023-03-01T03:13:50;-1.31;65.69
72772;SHT30;60894;42.544;1.516;2023-03-01T03:16:19;-1.31;65.66
72772;SHT30;60894;42.544;1.516;2023-03-01T03:18:46;-1.42;66.45
72772;SHT30;60894;42.544;1.516;2023-03-01T03:21:14;-1.48;66.58
72772;SHT30;60894;42.544;1.516;2023-03-01T03:23:41;-1.45;66.58
72772;SHT30;60894;42.544;1.516;2023-03-01T03:26:08;-1.45;67.05
72772;SHT30;60894;42.544;1.516;2023-03-01T03:28:40;-1.58;67.37
72772;SHT30;60894;42.544;1.516;2023-03-01T03:31:07;-1.58;67.26
72772;SHT30;60894;42.544;1.516;2023-03-01T03:33:36;-1.48;66.84
72772;SHT30;60894;42.544;1.516;2023-03-01T03:36:03;-1.41;66.75
72772;SHT30;60894;42.544;1.516;2023-03-01T03:38:30;-1.38;66.69
72772;SHT30;60894;42.544;1.516;2023-03-01T03:41:01;-1.41;66.90
72772;SHT30;60894;42.544;1.516;2023-03-01T03:43:31;-1.54;66.64
72772;SHT30;60894;42.544;1.516;2023-03-01T03:45:58;-1.52;66.73
72772;SHT30;60894;42.544;1.516;2023-03-01T03:48:26;-1.52;67.26
72772;SHT30;60894;42.544;1.516;2023-03-01T03:50:55;-1.60;67.37
72772;SHT30;60894;42.544;1.516;2023-03-01T03:53:25;-1.59;67.64
72772;SHT30;60894;42.544;1.516;2023-03-01T03:55:52;-1.56;66.99
72772;SHT30;60894;42.544;1.516;2023-03-01T03:58:21;-1.54;66.63
72772;SHT30;60894;42.544;1.516;2023-03-01T04:00:50;-1.63;66.57
72772;SHT30;60894;42.544;1.516;2023-03-01T04:03:18;-1.70;66.83
72772;SHT30;60894;42.544;1.516;2023-03-01T04:05:46;-1.65;67.43
72772;SHT30;60894;42.544;1.516;2023-03-01T04:08:16;-1.67;67.52
72772;SHT30;60894;42.544;1.516;2023-03-01T04:10:47;-1.70;67.49
72772;SHT30;60894;42.544;1.516;2023-03-01T04:13:15;-1.70;67.94
72772;SHT30;60894;42.544;1.516;2023-03-01T04:15:44;-1.76;67.94
72772;SHT30;60894;42.544;1.516;2023-03-01T04:18:48;-1.72;67.34
72772;SHT30;60894;42.544;1.516;2023-03-01T04:21:15;-1.70;67.03
72772;SHT30;60894;42.544;1.516;2023-03-01T04:23:44;-1.80;67.33
72772;SHT30;60894;42.544;1.516;2023-03-01T04:26:11;-1.86;67.93
72772;SHT30;60894;42.544;1.516;2023-03-01T04:28:39;-1.79;68.27
72772;SHT30;60894;42.544;1.516;2023-03-01T04:31:10;-1.80;68.44
72772;SHT30;60894;42.544;1.516;2023-03-01T04:33:40;-1.86;68.61
72772;SHT30;60894;42.544;1.516;2023-03-01T04:36:09;-1.82;68.40
72772;SHT30;60894;42.544;1.516;2023-03-01T04:38:36;-1.90;68.02
72772;SHT30;60894;42.544;1.516;2023-03-01T04:41:05;-1.80;67.72
72772;SHT30;60894;42.544;1.516;2023-03-01T04:43:33;-1.96;67.68
72772;SHT30;60894;42.544;1.516;2023-03-01T04:46:01;-1.93;68.08
72772;SHT30;60894;42.544;1.516;2023-03-01T04:48:30;-1.83;68.29
72772;SHT30;60894;42.544;1.516;2023-03-01T04:50:58;-1.77;68.00
72772;SHT30;60894;42.544;1.516;2023-03-01T04:53:25;-1.86;67.80
72772;SHT30;60894;42.544;1.516;2023-03-01T04:55:51;-1.82;68.18
72772;SHT30;60894;42.544;1.516;2023-03-01T04:58:21;-1.91;68.25
72772;SHT30;60894;42.544;1.516;2023-03-01T05:00:48;-1.90;68.41
72772;SHT30;60894;42.544;1.516;2023-03-01T05:03:15;-1.89;68.18
72772;SHT30;60894;42.544;1.516;2023-03-01T05:05:45;-1.86;68.26
72772;SHT30;60894;42.544;1.516;2023-03-01T05:08:13;-1.98;68.16
72772;SHT30;60894;42.544;1.516;2023-03-01T05:10:44;-2.04;67.81
72772;SHT30;60894;42.544;1.516;2023-03-01T05:13:11;-2.01;67.96
72772;SHT30;60894;42.544;1.516;2023-03-01T05:15:40;-2.07;68.81
72772;SHT30;60894;42.544;1.516;2023-03-01T05:18:07;-1.98;68.87
72772;SHT30;60894;42.544;1.516;2023-03-01T05:20:37;-1.94;68.95
72772;SHT30;60894;42.544;1.516;2023-03-01T05:23:04;-1.93;68.64
72772;SHT30;60894;42.544;1.516;2023-03-01T05:25:32;-1.94;68.86
72772;SHT30;60894;42.544;1.516;2023-03-01T05:27:59;-1.82;68.23
72772;SHT30;60894;42.544;1.516;2023-03-01T05:30:30;-1.80;67.89
72772;SHT30;60894;42.544;1.516;2023-03-01T05:32:58;-1.98;68.42
72772;SHT30;60894;42.544;1.516;2023-03-01T05:35:25;-1.94;68.57
72772;SHT30;60894;42.544;1.516;2023-03-01T05:37:53;-1.91;68.27
72772;SHT30;60894;42.544;1.516;2023-03-01T05:40:22;-2.07;69.30
72772;SHT30;60894;42.544;1.516;2023-03-01T05:42:51;-2.17;69.13
72772;SHT30;60894;42.544;1.516;2023-03-01T05:45:18;-2.17;69.24
72772;SHT30;60894;42.544;1.516;2023-03-01T05:47:47;-2.14;69.27
72772;SHT30;60894;42.544;1.516;2023-03-01T05:50:18;-2.23;68.91
72772;SHT30;60894;42.544;1.516;2023-03-01T05:52:46;-2.24;69.21
72772;SHT30;60894;42.544;1.516;2023-03-01T05:55:14;-2.21;69.08
72772;SHT30;60894;42.544;1.516;2023-03-01T05:57:41;-2.28;69.02
72772;SHT30;60894;42.544;1.516;2023-03-01T06:00:09;-2.18;69.28
72772;SHT30;60894;42.544;1.516;2023-03-01T06:02:37;-2.21;69.20
72772;SHT30;60894;42.544;1.516;2023-03-01T06:05:05;-2.26;69.05
72772;SHT30;60894;42.544;1.516;2023-03-01T06:07:33;-2.33;69.48
72772;SHT30;60894;42.544;1.516;2023-03-01T06:10:00;-2.30;69.43
72772;SHT30;60894;42.544;1.516;2023-03-01T06:12:30;-2.13;69.20
72772;SHT30;60894;42.544;1.516;2023-03-01T06:14:58;-2.33;69.14
72772;SHT30;60894;42.544;1.516;2023-03-01T06:17:25;-2.44;69.77
72772;SHT30;60894;42.544;1.516;2023-03-01T06:19:52;-2.40;69.83
72772;SHT30;60894;42.544;1.516;2023-03-01T06:22:19;-2.28;70.03
72772;SHT30;60894;42.544;1.516;2023-03-01T06:24:47;-2.21;69.52
72772;SHT30;60894;42.544;1.516;2023-03-01T06:27:14;-2.20;69.45
72772;SHT30;60894;42.544;1.516;2023-03-01T06:29:41;-2.14;69.27
72772;SHT30;60894;42.544;1.516;2023-03-01T06:32:08;-2.07;69.07
72772;SHT30;60894;42.544;1.516;2023-03-01T06:34:35;-2.07;68.86
72772;SHT30;60894;42.544;1.516;2023-03-01T06:37:02;-2.13;68.40
72772;SHT30;60894;42.544;1.516;2023-03-01T06:39:30;-2.26;69.41
72772;SHT30;60894;42.544;1.516;2023-03-01T06:41:59;-2.26;69.90
72772;SHT30;60894;42.544;1.516;2023-03-01T06:44:26;-2.26;69.84
72772;SHT30;60894;42.544;1.516;2023-03-01T06:46:53;-2.26;69.31
72772;SHT30;60894;42.544;1.516;2023-03-01T06:49:20;-2.18;69.31
72772;SHT30;60894;42.544;1.516;2023-03-01T06:51:47;-2.27;69.68
72772;SHT30;60894;42.544;1.516;2023-03-01T06:54:14;-2.26;69.70
72772;SHT30;60894;42.544;1.516;2023-03-01T06:56:43;-2.11;69.37
72772;SHT30;60894;42.544;1.516;2023-03-01T06:59:11;-2.08;69.05
72772;SHT30;60894;42.544;1.516;2023-03-01T07:01:38;-2.15;68.66
72772;SHT30;60894;42.544;1.516;2023-03-01T07:04:05;-2.18;68.63
72772;SHT30;60894;42.544;1.516;2023-03-01T07:06:32;-2.24;69.18
72772;SHT30;60894;42.544;1.516;2023-03-01T07:08:59;-2.15;69.38
72772;SHT30;60894;42.544;1.516;2023-03-01T07:11:25;-2.17;69.38
72772;SHT30;60894;42.544;1.516;2023-03-01T07:13:52;-2.11;69.25
72772;SHT30;60894;42.544;1.516;2023-03-01T07:16:22;-2.06;69.46
72772;SHT30;60894;42.544;1.516;2023-03-01T07:18:49;-2.18;69.41
72772;SHT30;60894;42.544;1.516;2023-03-01T07:21:15;-2.08;69.14
72772;SHT30;60894;42.544;1.516;2023-03-01T07:23:42;-2.14;69.11
72772;SHT30;60894;42.544;1.516;2023-03-01T07:26:09;-2.15;69.23
72772;SHT30;60894;42.544;1.516;2023-03-01T07:28:36;-2.13;69.46
72772;SHT30;60894;42.544;1.516;2023-03-01T07:31:05;-2.20;69.50
72772;SHT30;60894;42.544;1.516;2023-03-01T07:33:33;-2.21;69.63
72772;SHT30;60894;42.544;1.516;2023-03-01T07:36:03;-2.14;69.37
72772;SHT30;60894;42.544;1.516;2023-03-01T07:38:30;-2.01;69.29
72772;SHT30;60894;42.544;1.516;2023-03-01T07:40:58;-1.96;69.09
72772;SHT30;60894;42.544;1.516;2023-03-01T07:43:25;-1.97;68.96
72772;SHT30;60894;42.544;1.516;2023-03-01T07:45:53;-1.91;69.23
72772;SHT30;60894;42.544;1.516;2023-03-01T07:48:20;-1.83;68.92
72772;SHT30;60894;42.544;1.516;2023-03-01T07:50:48;-1.51;67.56
72772;SHT30;60894;42.544;1.516;2023-03-01T07:53:15;-1.72;68.22
72772;SHT30;60894;42.544;1.516;2023-03-01T07:55:42;-1.66;68.14
72772;SHT30;60894;42.544;1.516;2023-03-01T07:58:09;-1.67;68.40
72772;SHT30;60894;42.544;1.516;2023-03-01T08:00:36;-1.60;67.92
72772;SHT30;60894;42.544;1.516;2023-03-01T08:03:02;-1.55;67.76
72772;SHT30;60894;42.544;1.516;2023-03-01T08:05:29;-1.42;67.52
72772;SHT30;60894;42.544;1.516;2023-03-01T08:07:58;-1.28;66.77
72772;SHT30;60894;42.544;1.516;2023-03-01T08:10:25;-1.28;66.94
72772;SHT30;60894;42.544;1.516;2023-03-01T08:12:52;-1.14;66.64
72772;SHT30;60894;42.544;1.516;2023-03-01T08:15:19;-1.14;66.40
72772;SHT30;60894;42.544;1.516;2023-03-01T08:17:49;-1.04;65.91
72772;SHT30;60894;42.544;1.516;2023-03-01T08:20:16;-0.93;65.69
72772;SHT30;60894;42.544;1.516;2023-03-01T08:22:43;-0.87;65.73
72772;SHT30;60894;42.544;1.516;2023-03-01T08:25:11;-0.88;65.17
72772;SHT30;60894;42.544;1.516;2023-03-01T08:27:38;-0.77;64.97
72772;SHT30;60894;42.544;1.516;2023-03-01T08:30:06;-0.69;64.61
72772;SHT30;60894;42.544;1.516;2023-03-01T08:32:36;-0.53;64.04
72772;SHT30;60894;42.544;1.516;2023-03-01T08:35:04;-0.54;63.68
72772;SHT30;60894;42.544;1.516;2023-03-01T08:37:31;-0.49;63.60
72772;SHT30;60894;42.544;1.516;2023-03-01T08:39:58;-0.46;63.14
72772;SHT30;60894;42.544;1.516;2023-03-01T08:42:27;-0.35;63.00
72772;SHT30;60894;42.544;1.516;2023-03-01T08:44:53;-0.30;62.84
72772;SHT30;60894;42.544;1.516;2023-03-01T08:47:22;-0.11;62.33
72772;SHT30;60894;42.544;1.516;2023-03-01T08:49:49;0.08;61.52
72772;SHT30;60894;42.544;1.516;2023-03-01T08:52:16;0.23;60.70
72772;SHT30;60894;42.544;1.516;2023-03-01T08:54:43;0.27;59.82
72772;SHT30;60894;42.544;1.516;2023-03-01T08:57:10;0.36;59.27
72772;SHT30;60894;42.544;1.516;2023-03-01T08:59:39;0.63;58.60
72772;SHT30;60894;42.544;1.516;2023-03-01T09:02:11;0.80;57.07
72772;SHT30;60894;42.544;1.516;2023-03-01T09:04:39;1.01;56.16
72772;SHT30;60894;42.544;1.516;2023-03-01T09:07:06;1.15;54.67
72772;SHT30;60894;42.544;1.516;2023-03-01T09:09:33;1.25;53.43
72772;SHT30;60894;42.544;1.516;2023-03-01T09:12:00;1.38;52.31
72772;SHT30;60894;42.544;1.516;2023-03-01T09:14:27;1.60;51.40
72772;SHT30;60894;42.544;1.516;2023-03-01T09:16:56;1.71;51.05
72772;SHT30;60894;42.544;1.516;2023-03-01T09:19:23;1.94;51.17
72772;SHT30;60894;42.544;1.516;2023-03-01T09:21:50;2.21;50.34
72772;SHT30;60894;42.544;1.516;2023-03-01T09:24:20;2.30;49.71
72772;SHT30;60894;42.544;1.516;2023-03-01T09:26:47;2.51;49.60
72772;SHT30;60894;42.544;1.516;2023-03-01T09:29:14;2.76;49.00
72772;SHT30;60894;42.544;1.516;2023-03-01T09:31:42;2.85;47.71
72772;SHT30;60894;42.544;1.516;2023-03-01T09:34:11;3.13;47.27
72772;SHT30;60894;42.544;1.516;2023-03-01T09:36:40;3.34;46.57
72772;SHT30;60894;42.544;1.516;2023-03-01T09:39:07;3.62;45.84
72772;SHT30;60894;42.544;1.516;2023-03-01T09:41:43;3.82;45.58
72772;SHT30;60894;42.544;1.516;2023-03-01T09:44:18;3.85;44.29
72772;SHT30;60894;42.544;1.516;2023-03-01T09:46:48;4.17;44.07
72772;SHT30;60894;42.544;1.516;2023-03-01T09:49:18;4.43;44.29
72772;SHT30;60894;42.544;1.516;2023-03-01T09:51:58;4.67;43.58
72772;SHT30;60894;42.544;1.516;2023-03-01T09:54:26;4.92;42.54
72772;SHT30;60894;42.544;1.516;2023-03-01T09:57:01;4.94;42.35
72772;SHT30;60894;42.544;1.516;2023-03-01T09:59:37;5.34;42.22
72772;SHT30;60894;42.544;1.516;2023-03-01T10:02:27;5.62;41.70
72772;SHT30;60894;42.544;1.516;2023-03-01T10:05:05;6.00;40.39
72772;SHT30;60894;42.544;1.516;2023-03-01T10:07:44;5.77;40.03
72772;SHT30;60894;42.544;1.516;2023-03-01T10:10:25;6.14;40.46
72772;SHT30;60894;42.544;1.516;2023-03-01T10:12:53;6.13;38.84
72772;SHT30;60894;42.544;1.516;2023-03-01T10:15:28;6.28;39.43
72772;SHT30;60894;42.544;1.516;2023-03-01T10:18:00;6.37;40.74
72772;SHT30;60894;42.544;1.516;2023-03-01T10:20:42;6.32;40.95
72772;SHT30;60894;42.544;1.516;2023-03-01T10:23:10;6.20;41.25
72772;SHT30;60894;42.544;1.516;2023-03-01T10:25:47;6.29;41.00
72772;SHT30;60894;42.544;1.516;2023-03-01T10:28:18;6.49;39.61
72772;SHT30;60894;42.544;1.516;2023-03-01T10:30:46;6.29;39.14
72772;SHT30;60894;42.544;1.516;2023-03-01T10:33:17;6.39;39.55
72772;SHT30;60894;42.544;1.516;2023-03-01T10:35:48;6.55;39.01
72772;SHT30;60894;42.544;1.516;2023-03-01T10:38:17;6.76;38.48
72772;SHT30;60894;42.544;1.516;2023-03-01T10:40:53;6.76;38.34
72772;SHT30;60894;42.544;1.516;2023-03-01T10:43:23;7.04;38.82
72772;SHT30;60894;42.544;1.516;2023-03-01T10:45:50;7.52;37.22
72772;SHT30;60894;42.544;1.516;2023-03-01T10:48:19;7.57;37.00
72772;SHT30;60894;42.544;1.516;2023-03-01T10:51:04;7.88;36.14
72772;SHT30;60894;42.544;1.516;2023-03-01T10:53:33;7.93;35.79
72772;SHT30;60894;42.544;1.516;2023-03-01T10:56:03;7.85;36.47
72772;SHT30;60894;42.544;1.516;2023-03-01T10:58:32;8.03;36.64
72772;SHT30;60894;42.544;1.516;2023-03-01T11:01:01;7.47;36.98
72772;SHT30;60894;42.544;1.516;2023-03-01T11:03:29;7.52;36.79
72772;SHT30;60894;42.544;1.516;2023-03-01T11:06:01;7.72;36.96
72772;SHT30;60894;42.544;1.516;2023-03-01T11:08:34;7.85;36.21
72772;SHT30;60894;42.544;1.516;2023-03-01T11:11:06;7.89;35.14
72772;SHT30;60894;42.544;1.516;2023-03-01T11:13:33;8.19;35.48
72772;SHT30;60894;42.544;1.516;2023-03-01T11:16:02;8.71;35.46
72772;SHT30;60894;42.544;1.516;2023-03-01T11:18:30;8.75;35.04
72772;SHT30;60894;42.544;1.516;2023-03-01T11:20:59;9.12;33.97
72772;SHT30;60894;42.544;1.516;2023-03-01T11:23:28;9.18;34.27
72772;SHT30;60894;42.544;1.516;2023-03-01T11:25:57;8.87;34.51
72772;SHT30;60894;42.544;1.516;2023-03-01T11:28:27;9.33;34.41
72772;SHT30;60894;42.544;1.516;2023-03-01T11:31:00;9.67;33.83
72772;SHT30;60894;42.544;1.516;2023-03-01T11:33:35;9.95;33.18
72772;SHT30;60894;42.544;1.516;2023-03-01T11:36:10;10.21;33.15
72772;SHT30;60894;42.544;1.516;2023-03-01T11:38:39;10.44;32.98
72772;SHT30;60894;42.544;1.516;2023-03-01T11:41:10;9.93;33.68
72772;SHT30;60894;42.544;1.516;2023-03-01T11:43:47;10.35;33.21
72772;SHT30;60894;42.544;1.516;2023-03-01T11:46:48;10.00;33.59
72772;SHT30;60894;42.544;1.516;2023-03-01T11:49:45;9.62;33.65
72772;SHT30;60894;42.544;1.516;2023-03-01T11:52:22;9.91;33.38
72772;SHT30;60894;42.544;1.516;2023-03-01T11:55:02;9.97;33.18
72772;SHT30;60894;42.544;1.516;2023-03-01T11:57:43;10.38;32.98
72772;SHT30;60894;42.544;1.516;2023-03-01T12:00:20;10.24;33.21
72772;SHT30;60894;42.544;1.516;2023-03-01T12:08:51;10.31;32.75
72772;SHT30;60894;42.544;1.516;2023-03-01T12:11:32;10.91;31.66
72772;SHT30;60894;42.544;1.516;2023-03-01T12:14:23;11.44;31.23
72772;SHT30;60894;42.544;1.516;2023-03-01T12:17:19;12.05;29.92
72772;SHT30;60894;42.544;1.516;2023-03-01T12:20:05;12.36;28.81
72772;SHT30;60894;42.544;1.516;2023-03-01T12:22:47;12.25;28.01
72772;SHT30;60894;42.544;1.516;2023-03-01T12:25:26;11.84;29.25
72772;SHT30;60894;42.544;1.516;2023-03-01T12:33:57;12.36;25.09
72772;SHT30;60894;42.544;1.516;2023-03-01T12:39:34;12.52;25.22
72772;SHT30;60894;42.544;1.516;2023-03-01T12:42:33;12.40;25.42
72772;SHT30;60894;42.544;1.516;2023-03-01T12:45:31;12.91;24.41
72772;SHT30;60894;42.544;1.516;2023-03-01T12:48:15;13.27;23.58
72772;SHT30;60894;42.544;1.516;2023-03-01T12:50:47;13.39;23.20
72772;SHT30;60894;42.544;1.516;2023-03-01T12:53:24;13.38;23.18
72772;SHT30;60894;42.544;1.516;2023-03-01T12:55:53;13.93;23.67
72772;SHT30;60894;42.544;1.516;2023-03-01T12:58:26;13.38;23.85
72772;SHT30;60894;42.544;1.516;2023-03-01T13:01:05;13.11;22.69
72772;SHT30;60894;42.544;1.516;2023-03-01T13:03:49;12.68;23.46
72772;SHT30;60894;42.544;1.516;2023-03-01T13:06:25;13.27;23.59
72772;SHT30;60894;42.544;1.516;2023-03-01T13:09:00;13.11;22.93
72772;SHT30;60894;42.544;1.516;2023-03-01T13:11:32;13.83;22.74
72772;SHT30;60894;42.544;1.516;2023-03-01T13:17:01;14.68;23.20
72772;SHT30;60894;42.544;1.516;2023-03-01T13:19:29;14.55;21.34
72772;SHT30;60894;42.544;1.516;2023-03-01T13:21:58;13.66;21.12
72772;SHT30;60894;42.544;1.516;2023-03-01T13:24:27;13.79;21.80
72772;SHT30;60894;42.544;1.516;2023-03-01T13:27:21;14.23;20.91
72772;SHT30;60894;42.544;1.516;2023-03-01T13:29:52;14.26;22.04
72772;SHT30;60894;42.544;1.516;2023-03-01T13:32:22;13.70;21.71
72772;SHT30;60894;42.544;1.516;2023-03-01T13:34:51;13.08;22.29
72772;SHT30;60894;42.544;1.516;2023-03-01T13:37:27;13.24;22.64
72772;SHT30;60894;42.544;1.516;2023-03-01T13:39:56;13.73;22.36
72772;SHT30;60894;42.544;1.516;2023-03-01T13:42:40;13.73;21.46
72772;SHT30;60894;42.544;1.516;2023-03-01T13:45:23;13.97;20.95
72772;SHT30;60894;42.544;1.516;2023-03-01T13:48:00;14.45;20.88
72772;SHT30;60894;42.544;1.516;2023-03-01T13:50:33;14.27;21.21
72772;SHT30;60894;42.544;1.516;2023-03-01T13:53:05;14.30;21.14
72772;SHT30;60894;42.544;1.516;2023-03-01T13:55:38;14.28;20.24
72772;SHT30;60894;42.544;1.516;2023-03-01T13:58:18;14.42;20.64
72772;SHT30;60894;42.544;1.516;2023-03-01T14:00:46;14.85;20.70
72772;SHT30;60894;42.544;1.516;2023-03-01T14:03:16;14.68;21.11
72772;SHT30;60894;42.544;1.516;2023-03-01T14:05:57;14.72;20.71
72772;SHT30;60894;42.544;1.516;2023-03-01T14:08:26;14.91;20.80
72772;SHT30;60894;42.544;1.516;2023-03-01T14:11:22;15.70;20.65
72772;SHT30;60894;42.544;1.516;2023-03-01T14:14:07;14.86;21.08
72772;SHT30;60894;42.544;1.516;2023-03-01T14:16:45;13.61;21.50
72772;SHT30;60894;42.544;1.516;2023-03-01T14:19:18;13.82;22.13
72772;SHT30;60894;42.544;1.516;2023-03-01T14:21:59;13.90;22.28
72772;SHT30;60894;42.544;1.516;2023-03-01T14:24:29;14.33;22.53
72772;SHT30;60894;42.544;1.516;2023-03-01T14:26:58;14.16;21.96
72772;SHT30;60894;42.544;1.516;2023-03-01T14:29:34;14.09;22.04
72772;SHT30;60894;42.544;1.516;2023-03-01T14:32:12;15.06;21.48
72772;SHT30;60894;42.544;1.516;2023-03-01T14:34:48;13.65;22.56
72772;SHT30;60894;42.544;1.516;2023-03-01T14:37:19;13.63;23.52
72772;SHT30;60894;42.544;1.516;2023-03-01T14:39:47;13.80;23.08
72772;SHT30;60894;42.544;1.516;2023-03-01T14:42:15;13.72;23.04
72772;SHT30;60894;42.544;1.516;2023-03-01T14:44:43;13.54;22.99
72772;SHT30;60894;42.544;1.516;2023-03-01T14:47:12;13.65;23.15
72772;SHT30;60894;42.544;1.516;2023-03-01T14:49:41;14.16;23.29
72772;SHT30;60894;42.544;1.516;2023-03-01T14:52:19;14.28;23.20
72772;SHT30;60894;42.544;1.516;2023-03-01T14:54:48;14.13;22.01
72772;SHT30;60894;42.544;1.516;2023-03-01T14:57:19;14.26;21.73
72772;SHT30;60894;42.544;1.516;2023-03-01T14:59:47;14.75;21.75
72772;SHT30;60894;42.544;1.516;2023-03-01T15:02:17;15.12;21.42
72772;SHT30;60894;42.544;1.516;2023-03-01T15:04:46;14.89;21.41
72772;SHT30;60894;42.544;1.516;2023-03-01T15:07:15;14.58;22.47
72772;SHT30;60894;42.544;1.516;2023-03-01T15:09:44;13.73;23.13
72772;SHT30;60894;42.544;1.516;2023-03-01T15:12:37;13.28;24.51
72772;SHT30;60894;42.544;1.516;2023-03-01T15:15:21;12.43;25.54
72772;SHT30;60894;42.544;1.516;2023-03-01T15:17:52;12.49;25.55
72772;SHT30;60894;42.544;1.516;2023-03-01T15:20:23;12.28;26.04
72772;SHT30;60894;42.544;1.516;2023-03-01T15:22:51;12.81;25.96
72772;SHT30;60894;42.544;1.516;2023-03-01T15:25:22;13.01;25.39
72772;SHT30;60894;42.544;1.516;2023-03-01T15:27:51;12.98;25.14
72772;SHT30;60894;42.544;1.516;2023-03-01T15:30:21;12.76;24.70
72772;SHT30;60894;42.544;1.516;2023-03-01T15:35:56;13.04;25.55
72772;SHT30;60894;42.544;1.516;2023-03-01T15:38:29;12.56;25.79
72772;SHT30;60894;42.544;1.516;2023-03-01T15:40:58;11.85;26.78
72772;SHT30;60894;42.544;1.516;2023-03-01T15:43:44;11.45;28.15
72772;SHT30;60894;42.544;1.516;2023-03-01T15:46:17;10.77;29.06
72772;SHT30;60894;42.544;1.516;2023-03-01T15:48:46;10.35;30.25
72772;SHT30;60894;42.544;1.516;2023-03-01T15:51:16;9.98;30.84
72772;SHT30;60894;42.544;1.516;2023-03-01T15:53:48;9.79;31.96
72772;SHT30;60894;42.544;1.516;2023-03-01T15:56:16;9.39;32.73
72772;SHT30;60894;42.544;1.516;2023-03-01T15:58:42;9.15;32.80
72772;SHT30;60894;42.544;1.516;2023-03-01T16:01:12;9.15;33.20
72772;SHT30;60894;42.544;1.516;2023-03-01T16:03:39;9.10;33.37
72772;SHT30;60894;42.544;1.516;2023-03-01T16:06:09;9.12;33.18
72772;SHT30;60894;42.544;1.516;2023-03-01T16:08:37;9.08;33.15
72772;SHT30;60894;42.544;1.516;2023-03-01T16:11:13;8.95;33.33
72772;SHT30;60894;42.544;1.516;2023-03-01T16:13:40;8.81;33.66
72772;SHT30;60894;42.544;1.516;2023-03-01T16:16:09;8.70;33.57
72772;SHT30;60894;42.544;1.516;2023-03-01T16:18:38;8.51;34.13